TFM - Tactical Decision Aid
ID: Runway Winds: CIG/VIS Threshold:

KAIA - Alliance Muni, NE, US

Updated at: 1252 UTC 23 Jun 2021
Latest TAF at: 1144 UTC 23 Jun 2021

TAF Board

Time1153Z 23/13Z 23/14Z 23/15Z 23/16Z 23/17Z 23/18Z 23/19Z 23/20Z 23/21Z 23/22Z 23/23Z 24/00Z 24/01Z>>
Type OBS PRVL PRVL PRVL PRVL PRVL PRVL PRVL PRVL PRVL PRVL PRVL PRVL PRVL
VIS 10 >6 >6 >6 >6 >6 >6 >6 >6 >6 >6 >6 >6 >6
CIG -- -- -- -- -- -- -- -- -- -- -- 200 200 200
Cover CLR SCT SCT SCT SCT SCT SCT SCT SCT SCT SCT BKN BKN BKN
FltCat VFR VFR VFR VFR VFR VFR VFR VFR VFR VFR VFR VFR VFR VFR
WX -- -- -- -- -- -- -- -- -- -- -- SHRA VCTS SHRA VCTS --
WDir VRB 250 250 240 240 240 240 240 240 240 240 230 230 70
WSpd 0 5 5 9 9 9 9 9 9 9 9 14 14 8
WGst -- -- -- -- -- -- -- -- -- -- -- -- -- --

TDA Impact Legend

  None Marginal Slight Moderate High
Visibility (sm) >5 3≤X≤5 2≤X<3 0.5≤X<2 <0.5
Ceiling (100 ft) >30 10≤X≤30 6≤X<10 2≤X<6 <2
Wind Speed (kt) <15 15≤X<25 25≤X<30 ≥30
Wind Gust (kt) <15 15≤X<25 25≤X<35 ≥35
Weather No Wx Reported VCTS -TS,-FZRA TS,FZRA +TS,+FZRA
TAF
KAIA 231144Z 2312/2412 25005KT P6SM SCT150
  FM231500 24009KT P6SM SCT120
  FM232300 23014KT P6SM SHRA VCTS SCT100CB BKN200
  FM240100 07008KT P6SM BKN200
  FM240900 35006KT P6SM OVC250


METAR
KAIA 231153Z AUTO 00000KT 10SM CLR 13/10 A2982 RMK AO2 SLP052 T01330100 10178 20117 51003 $
KAIA 231053Z AUTO 25003KT 10SM CLR 12/09 A2982 RMK AO2 SLP051 T01220094 $
KAIA 230953Z AUTO 00000KT 10SM CLR 16/12 A2982 RMK AO2 SLP048 T01610117 $

Radar Display
Forecast Discussion